Summit Argo, IL (60501)

12:12 AM CST del 21 Dicembre 2014 (GMT -0600)
Garfield Ridge | Change Station
CLOSE
Current Station
Stazione meteo personale
Location: Chicago, IL
Altitudine: 604 ft
Stazioni meteo nelle vicinanze

Alt. 604 ft 41.78 °N, 87.79 °W | Updated 8 seconds ago

Coperto
Coperto
33.1 °F
Sembra 30 °F
N
3.8
Vento Variabile Vento da SE
Gusts 3.8 mph

Oggi
Massima -- | Minima -- °F
--% Possibilità di precip.
Ieri
Massima -- | Minima -- °F
Precip. -- in
7:15 AM 4:23 PM
Luna calante, 1% visible
Pressione 30.28 in
Visibilità 10.0 miglia
Nuvole Coperto 3100 ft
Raffreddamento del vento 30 °F
Punto di rugiada 28 °F
Umidità 83%
Piovosità 0.00 in
Spessore del manto nevoso Non disponibile.
Raggi UV 0 fuori da 12
Polline .10 fuori da 12
Qualità dell'aria Non disponibile.
Flu Activity Non disponibile.
METAR KMDW 210553Z 19005KT 10SM OVC031 01/M03 A3025 RMK AO2 SLP254 60000 T00111028 10011 20011 400170000 56005

More Conditions Fewer Conditions

Pressione 30.28 in
Visibilità 10.0 miglia
Nuvole Coperto 3100 ft
Raffreddamento del vento 30 °F
Punto di rugiada 28 °F
Umidità 83%
Piovosità 0.00 in
Spessore del manto nevoso Non disponibile.
Raggi UV 0 fuori da 12
Polline .10 fuori da 12
Qualità dell'aria Non disponibile.
Flu Activity Non disponibile.
METAR KMDW 210553Z 19005KT 10SM OVC031 01/M03 A3025 RMK AO2 SLP254 60000 T00111028 10011 20011 400170000 56005

More Conditions Fewer Conditions

10-Day Weather Forecast

Almanac

Astronomia

Dec. 21, 2014 Alba Tramonto
Ora attuale
Crepuscolo civile
Crepuscolo nautico
Crepuscolo astronomico
Luna
Estensione della luce visibile
Lunghezza del giorno
Tomorrow will be .
, % of the Moon is Illuminated

Gli estremi di oggi

State Highs State Lows

Community

WunderPhotos

Upload Photos

1,779,360 foto caricate!

WunderBlogs® & News

Nearby

Qualità dell'aria

  Qualità dell'aria Indice AQ Inquinante
Not available.

Profondità neve

Stazione Profondità Altitudine

Attività sismica

Città  Distanza Mag. Data & Ora
Minimo Magnitudo Mostrato è 2.5.

Temperature delle acque costiere

Località Temperatura

Stazioni meteo nelle vicinanze